Flight Track Log - Related Links

Times and Time Zones

All times are in EDT time to prevent confusion due to time zone crossing. See the ADR705 flight status page for this flight to view local times or setup timezone preferences in your user account.


Time Position Orientation Groundspeed Altitude Reporting Facility
EDT Latitude Longitude Course Direction KTS MPH feet Rate Location/Type
Wed 09:39:00 AM 41.7428 19.3948 324° Northwest  Level Estimated
Wed 09:40:00 AM 41.8247 19.3128 323° Northwest  Level Estimated
Wed 09:41:00 AM 41.9065 19.2306 323° Northwest  Level Estimated
Wed 09:42:00 AM 41.9882 19.1482 323° Northwest  Level Estimated
Wed 09:43:00 AM 42.0699 19.0656 323° Northwest  Level Estimated
Wed 09:44:00 AM 42.1516 18.9828 323° Northwest  Level Estimated
Wed 09:45:00 AM 42.2331 18.8998 323° Northwest  Level Estimated
Wed 09:46:00 AM 42.3146 18.8165 323° Northwest  Level Estimated
Wed 09:47:00 AM 42.3961 18.7331 323° Northwest  Level Estimated
Wed 09:48:00 AM 42.4775 18.6494 323° Northwest  Level Estimated
Wed 09:49:00 AM 42.5588 18.5655 323° Northwest  Level Estimated
Wed 09:50:00 AM 42.6401 18.4814 323° Northwest  Level Estimated
Wed 09:51:00 AM 42.7213 18.3971 323° Northwest  Level Estimated
Wed 09:52:00 AM 42.8024 18.3125 323° Northwest  Level Estimated
Wed 09:53:00 AM 42.8835 18.2278 323° Northwest  Level Estimated
Wed 09:54:00 AM 42.9645 18.1428 322° Northwest  Level Estimated
Wed 09:55:00 AM 43.0455 18.0576 322° Northwest  Level Estimated
Wed 09:56:00 AM 43.1264 17.9721 322° Northwest  Level Estimated
Wed 09:57:00 AM 43.2072 17.8864 322° Northwest  Level Estimated
Wed 09:58:00 AM 43.2880 17.8005 322° Northwest  Level Estimated
Wed 09:59:00 AM 43.3687 17.7144 322° Northwest  Level Estimated
Wed 10:00:00 AM 43.4493 17.6280 322° Northwest  Level Estimated
Wed 10:01:00 AM 43.5299 17.5415 322° Northwest  Level Estimated
Wed 10:02:00 AM 43.6104 17.4546 322° Northwest  Level Estimated
Wed 10:03:00 AM 43.6908 17.3676 322° Northwest  Level Estimated
Wed 10:04:00 AM 43.7712 17.2803 322° Northwest  Level Estimated
Wed 10:05:00 AM 43.8515 17.1928 322° Northwest  Level Estimated
Wed 10:06:00 AM 43.9318 17.1050 322° Northwest  Level Estimated
Wed 10:07:00 AM 44.0120 17.0170 322° Northwest  Level Estimated
Wed 10:08:00 AM 44.0921 16.9288 322° Northwest  Level Estimated
Wed 10:09:00 AM 44.1721 16.8403 322° Northwest  Level Estimated
Wed 10:10:00 AM 44.2521 16.7516 322° Northwest  Level Estimated
Wed 10:11:00 AM 44.3320 16.6627 321° Northwest  Level Estimated
Wed 10:12:00 AM 44.4118 16.5735 321° Northwest  Level Estimated
Wed 10:13:00 AM 44.4916 16.4841 321° Northwest  Level Estimated
Wed 10:14:00 AM 44.5713 16.3944 321° Northwest  Level Estimated
Wed 10:15:00 AM 44.6509 16.3044 321° Northwest  Level Estimated
Wed 10:16:00 AM 44.7304 16.2143 321° Northwest  Level Estimated
Wed 10:17:00 AM 44.8099 16.1238 321° Northwest  Level Estimated
Wed 10:18:00 AM 44.8893 16.0332 321° Northwest  Level Estimated
Wed 10:19:00 AM 44.9687 15.9423 321° Northwest  Level Estimated
Wed 10:20:00 AM 45.0479 15.8511 321° Northwest  Level Estimated
Wed 10:21:00 AM 45.1271 15.7597 321° Northwest  Level Estimated
Wed 10:22:00 AM 45.2062 15.6680 321° Northwest  Level Estimated
Wed 10:23:00 AM 45.2853 15.5760 321° Northwest  Level Estimated
Wed 10:24:00 AM 45.3642 15.4838 321° Northwest  Level Estimated
Wed 10:25:00 AM 45.4431 15.3914 321° Northwest  Level Estimated
Wed 10:26:00 AM 45.5220 15.2987 321° Northwest  Level Estimated
Wed 10:27:00 AM 45.6007 15.2057 320° Northwest  Level Estimated
Wed 10:28:00 AM 45.6794 15.1125 320° Northwest  Level Estimated
Wed 10:29:00 AM 45.7580 15.0190 320° Northwest  Level Estimated
Wed 10:30:00 AM 45.8365 14.9252 320° Northwest  Level Estimated
Wed 10:31:00 AM 45.9149 14.8312 320° Northwest  Level Estimated
Wed 10:32:00 AM 45.9933 14.7369 320° Northwest  Level Estimated
Wed 10:33:00 AM 46.0716 14.6424 320° Northwest  Level Estimated
Wed 10:34:00 AM 46.1498 14.5475 320° Northwest  Level Estimated
Wed 10:35:00 AM 46.2237 14.4576 320° Northwest  Level Estimated
Wed 10:36:00 AM 46.2237 14.4576 170° South  Level Estimated
Wed 10:37:00 AM 46.2237 14.4576 170° South  Level Estimated
Wed 10:38:00 AM 46.2237 14.4576 170° South  Level Estimated
Wed 10:39:00 AM 46.2237 14.4576 170° South  Level Estimated
Wed 10:40:00 AM 46.2237 14.4576 170° South  Level Estimated
Wed 10:41:00 AM 46.2237 14.4576 170° South  Level Estimated
Wed 10:42:00 AM 46.2237 14.4576 170° South  Level Estimated
Wed 10:43:00 AM 46.2237 14.4576 170° South  Level Estimated
Wed 10:44:00 AM 46.2237 14.4576 170° South  Level Estimated
Wed 10:45:00 AM 46.2237 14.4576 170° South  Level Estimated
Wed 10:46:00 AM 46.2237 14.4576 170° South  Level Estimated
Wed 10:47:00 AM 46.2237 14.4576 170° South  Level Estimated

Login

Don't have an account? Register now (free) for customized features, flight alerts, and more!